createdAt,value
2019-04-07T00:01:58.399Z,77.37
2019-04-07T00:04:23.816Z,81.05
2019-04-07T00:06:49.352Z,83.00
2019-04-07T00:09:15.354Z,76.73
2019-04-07T00:11:40.777Z,75.43
2019-04-07T00:14:06.197Z,80.75
2019-04-07T00:16:31.670Z,78.75
2019-04-07T00:18:57.017Z,78.57
2019-04-07T00:21:22.381Z,78.53
2019-04-07T00:23:47.876Z,72.00
2019-04-07T00:26:13.600Z,78.02
2019-04-07T00:28:39.532Z,76.42
2019-04-07T00:31:05.166Z,79.03
2019-04-07T00:33:30.999Z,75.43
2019-04-07T00:35:56.913Z,73.20
2019-04-07T00:38:22.838Z,76.28
2019-04-07T00:40:48.240Z,74.85
2019-04-07T00:43:13.905Z,74.35
2019-04-07T00:45:39.317Z,75.93
2019-04-07T00:48:04.773Z,77.58
2019-04-07T00:50:31.720Z,74.35
2019-04-07T00:52:57.221Z,77.37
2019-04-07T00:55:23.023Z,76.93
2019-04-07T00:57:48.464Z,71.63
2019-04-07T01:00:17.224Z,80.72
2019-04-07T01:02:42.943Z,69.53
2019-04-07T01:05:09.228Z,68.65
2019-04-07T01:07:34.687Z,74.23
2019-04-07T01:10:07.555Z,76.20
2019-04-07T01:12:33.613Z,72.30
2019-04-07T01:14:59.633Z,69.42
2019-04-07T01:17:25.340Z,70.32
2019-04-07T01:19:50.990Z,77.60
2019-04-07T01:22:16.563Z,75.75
2019-04-07T01:24:42.225Z,71.47
2019-04-07T01:27:08.240Z,66.67
2019-04-07T01:29:34.179Z,71.93
2019-04-07T01:31:59.691Z,66.40
2019-04-07T01:34:25.130Z,78.12
2019-04-07T01:36:50.508Z,75.67
2019-04-07T01:39:16.109Z,76.17
2019-04-07T01:42:01.617Z,66.75
2019-04-07T01:44:35.684Z,71.20
2019-04-07T01:47:26.710Z,77.17
2019-04-07T01:50:08.845Z,71.92
2019-04-07T01:52:43.789Z,71.80
2019-04-07T01:55:28.435Z,68.00
2019-04-07T01:58:12.772Z,69.92
2019-04-07T02:00:48.921Z,66.25
2019-04-07T02:03:32.893Z,63.35
2019-04-07T02:06:14.332Z,73.90
2019-04-07T02:08:50.739Z,68.60
2019-04-07T02:11:25.552Z,75.03
2019-04-07T02:14:08.883Z,67.12
2019-04-07T02:16:53.157Z,61.85
2019-04-07T02:19:40.468Z,66.95
2019-04-07T02:22:28.975Z,71.97
2019-04-07T02:25:13.929Z,61.40
2019-04-07T02:27:58.048Z,67.42
2019-04-07T02:30:54.716Z,67.42
2019-04-07T02:33:27.650Z,67.67
2019-04-07T02:36:26.143Z,63.50
2019-04-07T02:39:11.117Z,62.87
2019-04-07T02:41:54.814Z,60.90
2019-04-07T02:44:51.584Z,69.97
2019-04-07T02:47:36.119Z,71.65
2019-04-07T02:50:33.270Z,61.48
2019-04-07T02:53:16.038Z,55.55
2019-04-07T02:56:01.582Z,57.38
2019-04-07T02:58:46.365Z,58.42
2019-04-07T03:01:30.697Z,61.60
2019-04-07T03:04:24.498Z,57.35
2019-04-07T03:07:07.720Z,56.02
2019-04-07T03:10:10.860Z,58.50
2019-04-07T03:12:51.950Z,60.40
2019-04-07T03:15:48.485Z,54.93
2019-04-07T03:18:26.996Z,62.35
2019-04-07T03:21:11.535Z,55.12
2019-04-07T03:23:45.683Z,56.53
2019-04-07T03:26:29.401Z,57.10
2019-04-07T03:29:03.765Z,56.98
2019-04-07T03:31:49.190Z,55.80
2019-04-07T03:34:33.488Z,51.90
2019-04-07T03:37:21.759Z,54.60
2019-04-07T03:39:55.499Z,51.53
2019-04-07T03:42:29.784Z,53.23
2019-04-07T03:45:20.416Z,55.40
2019-04-07T03:48:10.523Z,52.13
2019-04-07T03:50:59.917Z,58.93
2019-04-07T03:53:39.411Z,58.33
2019-04-07T03:56:27.193Z,57.03
2019-04-07T03:59:18.201Z,56.13
2019-04-07T04:02:09.872Z,56.10
2019-04-07T04:04:53.130Z,55.47
2019-04-07T04:07:31.308Z,58.17
2019-04-07T04:10:01.024Z,61.47
2019-04-07T04:12:37.579Z,56.60
2019-04-07T04:15:10.689Z,55.73
2019-04-07T04:17:36.967Z,54.40
2019-04-07T04:20:02.570Z,57.70
2019-04-07T04:22:29.017Z,58.23
2019-04-07T04:24:55.475Z,52.77
2019-04-07T04:27:21.610Z,51.63
2019-04-07T04:29:51.511Z,57.70
2019-04-07T04:32:14.139Z,53.23
2019-04-07T04:34:39.572Z,54.30
2019-04-07T04:37:05.053Z,54.30
2019-04-07T04:39:31.428Z,60.33
2019-04-07T04:41:57.705Z,60.00
2019-04-07T04:44:24.113Z,54.90
2019-04-07T04:46:49.853Z,52.30
2019-04-07T04:49:15.327Z,54.73
2019-04-07T04:51:41.064Z,57.60
2019-04-07T04:54:07.135Z,56.73
2019-04-07T04:56:32.908Z,54.93
2019-04-07T04:58:58.509Z,51.97
2019-04-07T05:01:24.163Z,55.10
2019-04-07T05:03:49.637Z,52.50
2019-04-07T05:06:15.382Z,52.20
2019-04-07T05:08:40.713Z,52.37
2019-04-07T05:11:06.750Z,49.13
2019-04-07T05:13:32.952Z,55.20
2019-04-07T05:15:59.407Z,52.40
2019-04-07T05:18:24.844Z,51.97
2019-04-07T05:20:50.351Z,56.03
2019-04-07T05:23:16.228Z,54.97
2019-04-07T05:25:41.720Z,57.57
2019-04-07T05:28:07.163Z,54.33
2019-04-07T05:30:32.565Z,51.00
2019-04-07T05:32:57.896Z,51.60
2019-04-07T05:35:24.076Z,52.10
2019-04-07T05:37:59.978Z,50.35
2019-04-07T05:40:16.749Z,48.50
2019-04-07T05:42:42.192Z,51.33
2019-04-07T05:45:08.271Z,54.93
2019-04-07T05:47:33.946Z,53.17
2019-04-07T05:50:00.579Z,56.97
2019-04-07T05:52:27.209Z,50.30
2019-04-07T05:54:53.393Z,53.13
2019-04-07T05:57:19.711Z,51.28
2019-04-07T05:59:45.177Z,54.23
2019-04-07T06:02:11.138Z,60.37
2019-04-07T06:04:36.567Z,55.48
2019-04-07T06:07:02.006Z,52.40
2019-04-07T06:09:28.081Z,51.57
2019-04-07T06:11:54.429Z,59.37
2019-04-07T06:14:20.483Z,58.03
2019-04-07T06:16:45.986Z,55.57
2019-04-07T06:19:11.704Z,58.63
2019-04-07T06:21:37.816Z,60.20
2019-04-07T06:24:03.556Z,61.40
2019-04-07T06:26:29.385Z,60.17
2019-04-07T06:28:58.488Z,59.70
2019-04-07T06:31:25.051Z,53.37
2019-04-07T06:33:49.910Z,61.30
2019-04-07T06:36:17.701Z,61.77
2019-04-07T06:38:46.498Z,60.57
2019-04-07T06:41:10.684Z,59.95
2019-04-07T06:43:38.183Z,53.05
2019-04-07T06:46:27.074Z,55.73
2019-04-07T06:49:11.274Z,56.03
2019-04-07T06:51:42.488Z,50.53
2019-04-07T06:54:30.791Z,52.70
2019-04-07T06:57:14.823Z,50.60
2019-04-07T07:00:08.227Z,49.90
2019-04-07T07:02:44.435Z,46.45
2019-04-07T07:05:33.405Z,55.83
2019-04-07T07:08:12.789Z,53.92
2019-04-07T07:10:58.520Z,48.13
2019-04-07T07:13:43.801Z,53.25
2019-04-07T07:16:33.851Z,52.08
2019-04-07T07:19:16.424Z,48.78
2019-04-07T07:21:59.629Z,50.30
2019-04-07T07:24:26.324Z,50.23
2019-04-07T07:26:52.862Z,51.65
2019-04-07T07:29:19.079Z,54.45
2019-04-07T07:31:44.925Z,52.58
2019-04-07T07:34:11.657Z,58.02
2019-04-07T07:36:37.297Z,52.30
2019-04-07T07:39:08.297Z,54.63
2019-04-07T07:41:30.135Z,58.17
2019-04-07T07:44:00.424Z,60.65
2019-04-07T07:46:23.793Z,57.75
2019-04-07T07:48:49.988Z,51.68
2019-04-07T07:51:16.391Z,53.10
2019-04-07T07:53:42.689Z,54.53
2019-04-07T07:56:11.455Z,58.35
2019-04-07T07:58:35.544Z,52.30
2019-04-07T08:01:01.455Z,54.00
2019-04-07T08:03:27.323Z,57.58
2019-04-07T08:05:53.331Z,58.38
2019-04-07T08:08:20.213Z,56.70
2019-04-07T08:10:46.280Z,50.78
2019-04-07T08:13:12.157Z,52.53
2019-04-07T08:15:37.814Z,54.60
2019-04-07T08:18:07.170Z,52.90
2019-04-07T08:20:30.687Z,50.88
2019-04-07T08:22:56.216Z,45.83
2019-04-07T08:25:23.660Z,49.63
2019-04-07T08:27:48.893Z,44.90
2019-04-07T08:30:14.607Z,45.00
2019-04-07T08:32:40.978Z,48.00
2019-04-07T08:35:06.913Z,45.35
2019-04-07T08:37:34.057Z,45.00
2019-04-07T08:40:07.154Z,39.63
2019-04-07T08:42:30.325Z,39.03
2019-04-07T08:44:58.599Z,36.38
2019-04-07T08:47:23.475Z,40.63
2019-04-07T08:49:49.542Z,40.38
2019-04-07T08:52:15.260Z,43.63
2019-04-07T08:54:40.834Z,43.33
2019-04-07T08:57:07.057Z,38.80
2019-04-07T08:59:32.859Z,38.67
2019-04-07T09:01:58.311Z,39.58
2019-04-07T09:04:24.175Z,40.75
2019-04-07T09:06:50.298Z,38.08
2019-04-07T09:09:15.863Z,35.08
2019-04-07T09:11:42.398Z,32.53
2019-04-07T09:14:08.688Z,34.08
2019-04-07T09:16:41.686Z,34.88
2019-04-07T09:19:35.867Z,35.92
2019-04-07T09:22:22.166Z,33.67
2019-04-07T09:25:08.492Z,34.78
2019-04-07T09:27:51.119Z,29.10
2019-04-07T09:30:35.657Z,34.60
2019-04-07T09:33:36.959Z,28.75
2019-04-07T09:36:14.804Z,34.35
2019-04-07T09:39:02.724Z,29.45
2019-04-07T09:41:52.657Z,29.52
2019-04-07T09:44:37.779Z,26.23
2019-04-07T09:47:31.432Z,25.17
2019-04-07T09:50:11.206Z,27.85
2019-04-07T09:52:49.389Z,21.05
2019-04-07T09:55:33.230Z,15.45
2019-04-07T09:58:10.907Z,15.72
2019-04-07T10:00:45.402Z,15.30
2019-04-07T10:03:21.138Z,16.42
2019-04-07T10:05:58.279Z,14.43
2019-04-07T10:08:35.206Z,18.32
2019-04-07T10:11:25.197Z,15.88
2019-04-07T10:14:08.385Z,18.20
2019-04-07T10:16:51.935Z,14.40
2019-04-07T10:19:32.981Z,14.23
2019-04-07T10:22:07.307Z,14.25
2019-04-07T10:24:50.518Z,14.43
2019-04-07T10:27:26.599Z,11.18
2019-04-07T10:30:09.966Z,15.05
2019-04-07T10:32:52.099Z,13.65
2019-04-07T10:35:37.351Z,12.53
2019-04-07T10:38:14.181Z,12.07
2019-04-07T10:40:59.352Z,12.98
2019-04-07T10:43:50.392Z,14.05
2019-04-07T10:46:39.525Z,11.40
2019-04-07T10:49:36.210Z,14.30
2019-04-07T10:52:36.033Z,12.15
2019-04-07T10:55:20.713Z,12.55
2019-04-07T10:57:52.409Z,12.05
2019-04-07T11:00:35.602Z,12.13
2019-04-07T11:03:08.835Z,11.30
2019-04-07T11:05:53.743Z,9.10
2019-04-07T11:08:42.229Z,8.45
2019-04-07T11:11:32.536Z,9.03
2019-04-07T11:14:21.781Z,9.65
2019-04-07T11:17:25.385Z,10.82
2019-04-07T11:20:06.740Z,9.90
2019-04-07T11:22:50.518Z,10.35
2019-04-07T11:25:29.545Z,8.75
2019-04-07T11:28:32.612Z,9.48
2019-04-07T11:31:19.772Z,12.05
2019-04-07T11:34:14.067Z,13.38
2019-04-07T11:36:59.490Z,15.65
2019-04-07T11:39:50.509Z,12.95
2019-04-07T11:42:33.394Z,16.42
2019-04-07T11:45:17.844Z,13.08
2019-04-07T11:47:54.680Z,14.65
2019-04-07T11:50:54.267Z,13.88
2019-04-07T11:53:47.869Z,14.35
2019-04-07T11:56:35.244Z,13.80
2019-04-07T11:59:22.435Z,14.07
2019-04-07T12:02:22.783Z,13.30
2019-04-07T12:05:10.215Z,12.53
2019-04-07T12:07:58.333Z,13.13
2019-04-07T12:10:54.198Z,11.30
2019-04-07T12:13:28.450Z,10.45
2019-04-07T12:16:22.218Z,12.37
2019-04-07T12:19:06.368Z,13.50
2019-04-07T12:21:54.710Z,11.55
2019-04-07T12:24:36.285Z,11.80
2019-04-07T12:27:15.136Z,10.72
2019-04-07T12:29:47.182Z,13.08
2019-04-07T12:32:49.845Z,13.43
2019-04-07T12:35:43.537Z,12.80
2019-04-07T12:38:22.987Z,13.78
2019-04-07T12:41:16.597Z,13.72
2019-04-07T12:43:51.644Z,12.25
2019-04-07T12:46:36.506Z,14.60
2019-04-07T12:49:19.074Z,13.32
2019-04-07T12:52:02.124Z,10.50
2019-04-07T12:55:01.763Z,15.18
2019-04-07T12:57:46.226Z,12.70
2019-04-07T13:00:55.672Z,11.60
2019-04-07T13:03:35.289Z,12.40
2019-04-07T13:06:17.968Z,12.68
2019-04-07T13:08:58.622Z,13.45
2019-04-07T13:11:38.454Z,12.20
2019-04-07T13:14:25.686Z,13.60
2019-04-07T13:17:20.569Z,12.35
2019-04-07T13:19:58.391Z,9.88
2019-04-07T13:22:57.080Z,13.48
2019-04-07T13:25:45.371Z,11.70
2019-04-07T13:28:17.477Z,12.20
2019-04-07T13:30:58.431Z,14.93
2019-04-07T13:33:39.372Z,10.88
2019-04-07T13:36:25.230Z,12.33
2019-04-07T13:39:19.467Z,13.55
2019-04-07T13:42:10.217Z,12.70
2019-04-07T13:45:03.506Z,14.68
2019-04-07T13:47:49.634Z,15.00
2019-04-07T13:50:31.095Z,12.03
2019-04-07T13:53:07.837Z,14.03
2019-04-07T13:55:50.952Z,15.85
2019-04-07T13:58:45.424Z,14.05
2019-04-07T14:01:31.210Z,12.85
2019-04-07T14:04:14.420Z,14.83
2019-04-07T14:06:47.891Z,14.05
2019-04-07T14:09:36.387Z,14.38
2019-04-07T14:12:18.674Z,15.88
2019-04-07T14:15:02.942Z,12.15
2019-04-07T14:17:48.137Z,14.33
2019-04-07T14:20:45.702Z,12.45
2019-04-07T14:23:30.142Z,17.15
2019-04-07T14:26:26.905Z,14.73
2019-04-07T14:29:20.332Z,13.95
2019-04-07T14:32:20.910Z,15.30
2019-04-07T14:35:05.451Z,15.80
2019-04-07T14:37:49.433Z,13.90
2019-04-07T14:40:33.411Z,15.43
2019-04-07T14:43:26.729Z,15.25
2019-04-07T14:46:21.190Z,15.75
2019-04-07T14:49:05.515Z,15.75
2019-04-07T14:51:49.963Z,17.32
2019-04-07T14:54:46.295Z,17.48
2019-04-07T14:57:24.444Z,14.68
2019-04-07T14:59:58.900Z,17.05
2019-04-07T15:02:24.792Z,18.48
2019-04-07T15:04:57.350Z,15.98
2019-04-07T15:07:40.868Z,16.90
2019-04-07T15:10:14.612Z,15.63
2019-04-07T15:12:44.133Z,21.48
2019-04-07T15:15:11.749Z,18.17
2019-04-07T15:17:37.094Z,16.23
2019-04-07T15:20:02.823Z,14.15
2019-04-07T15:22:29.965Z,15.40
2019-04-07T15:24:55.980Z,17.45
2019-04-07T15:27:23.652Z,19.42
2019-04-07T15:29:49.209Z,15.88
2019-04-07T15:32:14.808Z,15.30
2019-04-07T15:34:42.234Z,18.17
2019-04-07T15:37:07.861Z,16.62
2019-04-07T15:39:33.623Z,16.90
2019-04-07T15:41:59.122Z,15.60
2019-04-07T15:44:24.874Z,16.87
2019-04-07T15:46:53.250Z,14.43
2019-04-07T15:49:18.445Z,16.45
2019-04-07T15:51:44.017Z,16.73
2019-04-07T15:54:09.762Z,15.53
2019-04-07T15:56:35.700Z,16.52
2019-04-07T15:59:02.328Z,14.60
2019-04-07T16:01:28.062Z,13.13
2019-04-07T16:03:54.797Z,16.02
2019-04-07T16:06:20.705Z,17.85
2019-04-07T16:08:46.878Z,15.95
2019-04-07T16:11:12.890Z,13.72
2019-04-07T16:13:39.085Z,14.90
2019-04-07T16:16:05.839Z,14.43
2019-04-07T16:18:31.954Z,13.45
2019-04-07T16:20:57.569Z,13.85
2019-04-07T16:23:23.357Z,14.85
2019-04-07T16:25:49.419Z,16.20
2019-04-07T16:28:16.111Z,13.08
2019-04-07T16:30:41.782Z,17.52
2019-04-07T16:33:08.799Z,14.58
2019-04-07T16:35:34.574Z,15.55
2019-04-07T16:38:01.496Z,15.75
2019-04-07T16:40:28.069Z,15.00
2019-04-07T16:43:05.488Z,19.32
2019-04-07T16:45:21.254Z,16.35
2019-04-07T16:47:47.818Z,17.23
2019-04-07T16:50:18.116Z,16.42
2019-04-07T16:52:41.852Z,13.20
2019-04-07T16:55:29.081Z,16.82
2019-04-07T16:57:54.925Z,21.97
2019-04-07T17:00:21.344Z,14.85
2019-04-07T17:02:47.802Z,14.30
2019-04-07T17:05:15.090Z,15.00
2019-04-07T17:07:44.288Z,17.35
2019-04-07T17:10:09.709Z,14.18
2019-04-07T17:12:40.626Z,17.95
2019-04-07T17:15:06.352Z,17.50
2019-04-07T17:17:32.547Z,17.75
2019-04-07T17:19:59.629Z,17.27
2019-04-07T17:22:27.219Z,18.05
2019-04-07T17:24:53.266Z,15.98
2019-04-07T17:27:19.384Z,17.42
2019-04-07T17:29:45.966Z,14.58
2019-04-07T17:32:13.327Z,18.20
2019-04-07T17:34:41.692Z,16.12
2019-04-07T17:37:06.076Z,15.72
2019-04-07T17:39:49.499Z,15.98
2019-04-07T17:42:18.457Z,16.25
2019-04-07T17:45:07.420Z,19.77
2019-04-07T17:47:55.948Z,16.60
2019-04-07T17:50:44.201Z,16.27
2019-04-07T17:53:19.286Z,19.55
2019-04-07T17:56:05.548Z,15.95
2019-04-07T17:58:45.736Z,16.52
2019-04-07T18:01:24.895Z,18.37
2019-04-07T18:04:13.995Z,17.80
2019-04-07T18:06:56.376Z,15.45
2019-04-07T18:09:33.373Z,19.05
2019-04-07T18:12:30.581Z,17.70
2019-04-07T18:15:14.746Z,17.32
2019-04-07T18:17:59.375Z,17.55
2019-04-07T18:20:39.589Z,18.37
2019-04-07T18:23:26.512Z,17.52
2019-04-07T18:26:10.097Z,18.82
2019-04-07T18:28:52.172Z,15.85
2019-04-07T18:31:23.387Z,17.25
2019-04-07T18:34:06.678Z,19.67
2019-04-07T18:36:52.122Z,16.85
2019-04-07T18:39:36.312Z,19.92
2019-04-07T18:42:15.098Z,16.42
2019-04-07T18:45:07.952Z,19.48
2019-04-07T18:47:45.228Z,16.87
2019-04-07T18:50:48.444Z,18.98
2019-04-07T18:53:29.185Z,17.75
2019-04-07T18:56:22.759Z,14.73
2019-04-07T18:59:00.493Z,16.17
2019-04-07T19:01:45.073Z,16.70
2019-04-07T19:04:30.356Z,18.60
2019-04-07T19:07:02.310Z,18.87
2019-04-07T19:09:49.738Z,16.75
2019-04-07T19:12:47.741Z,20.30
2019-04-07T19:15:31.076Z,16.65
2019-04-07T19:18:16.149Z,19.12
2019-04-07T19:20:59.825Z,17.80
2019-04-07T19:23:43.707Z,17.98
2019-04-07T19:26:29.050Z,16.60
2019-04-07T19:29:12.319Z,16.50
2019-04-07T19:31:55.709Z,20.15
2019-04-07T19:34:40.950Z,22.50
2019-04-07T19:37:22.910Z,24.18
2019-04-07T19:40:06.634Z,26.37
2019-04-07T19:42:50.851Z,25.77
2019-04-07T19:45:35.013Z,26.82
2019-04-07T19:48:23.288Z,25.88
2019-04-07T19:51:15.467Z,22.73
2019-04-07T19:53:49.300Z,19.90
2019-04-07T19:56:32.870Z,21.50
2019-04-07T19:59:21.405Z,19.98
2019-04-07T20:02:18.500Z,21.40
2019-04-07T20:05:02.282Z,21.35
2019-04-07T20:07:50.849Z,18.52
2019-04-07T20:10:38.167Z,17.55
2019-04-07T20:13:24.382Z,20.02
2019-04-07T20:16:11.621Z,18.62
2019-04-07T20:18:44.440Z,19.20
2019-04-07T20:21:36.593Z,17.00
2019-04-07T20:24:09.144Z,19.35
2019-04-07T20:26:45.532Z,21.35
2019-04-07T20:29:19.732Z,23.80
2019-04-07T20:31:59.050Z,22.05
2019-04-07T20:34:36.592Z,22.95
2019-04-07T20:37:17.844Z,21.62
2019-04-07T20:40:00.316Z,25.05
2019-04-07T20:42:37.580Z,28.00
2019-04-07T20:45:22.731Z,24.37
2019-04-07T20:48:07.467Z,21.05
2019-04-07T20:50:50.546Z,22.85
2019-04-07T20:53:32.408Z,25.23
2019-04-07T20:56:17.497Z,22.48
2019-04-07T20:59:04.647Z,22.50
2019-04-07T21:02:03.129Z,24.12
2019-04-07T21:04:37.469Z,23.40
2019-04-07T21:07:25.021Z,22.27
2019-04-07T21:09:58.740Z,19.62
2019-04-07T21:12:42.788Z,22.75
2019-04-07T21:15:30.402Z,24.63
2019-04-07T21:18:23.536Z,23.32
2019-04-07T21:20:57.772Z,21.12
2019-04-07T21:23:30.169Z,19.17
2019-04-07T21:26:20.938Z,22.13
2019-04-07T21:29:09.890Z,25.17
2019-04-07T21:31:47.608Z,26.70
2019-04-07T21:34:45.001Z,24.60
2019-04-07T21:37:45.747Z,24.47
2019-04-07T21:40:32.049Z,22.80
2019-04-07T21:43:20.101Z,21.95
2019-04-07T21:45:54.758Z,23.38
2019-04-07T21:48:37.482Z,23.75
2019-04-07T21:51:13.478Z,22.37
2019-04-07T21:53:47.492Z,21.02
2019-04-07T21:56:18.427Z,20.17
2019-04-07T21:59:21.483Z,24.57
2019-04-07T22:02:11.442Z,20.85
2019-04-07T22:04:56.912Z,26.07
2019-04-07T22:07:46.262Z,23.67
2019-04-07T22:10:12.350Z,23.10
2019-04-07T22:12:38.039Z,23.60
2019-04-07T22:15:04.636Z,24.05
2019-04-07T22:17:34.221Z,23.55
2019-04-07T22:19:57.290Z,22.32
2019-04-07T22:22:24.069Z,22.02
2019-04-07T22:24:50.705Z,26.12
2019-04-07T22:27:21.264Z,24.57
2019-04-07T22:29:43.716Z,24.32
2019-04-07T22:32:09.255Z,27.02
2019-04-07T22:34:35.578Z,24.00
2019-04-07T22:37:01.179Z,28.75
2019-04-07T22:39:28.912Z,26.35
2019-04-07T22:41:56.087Z,24.45
2019-04-07T22:44:22.249Z,22.35
2019-04-07T22:46:51.927Z,24.87
2019-04-07T22:49:15.769Z,24.77
2019-04-07T22:51:44.521Z,26.37
2019-04-07T22:54:08.436Z,25.75
2019-04-07T22:56:36.614Z,28.12
2019-04-07T22:59:01.653Z,23.80
2019-04-07T23:01:27.249Z,25.57
2019-04-07T23:03:53.791Z,26.45
2019-04-07T23:06:19.929Z,27.15
2019-04-07T23:08:45.394Z,24.75
2019-04-07T23:11:10.888Z,30.00
2019-04-07T23:13:36.484Z,23.77
2019-04-07T23:16:10.773Z,31.68
2019-04-07T23:18:29.737Z,30.23
2019-04-07T23:20:55.651Z,25.77
2019-04-07T23:23:21.802Z,29.42
2019-04-07T23:25:47.378Z,27.85
2019-04-07T23:28:12.868Z,26.27
2019-04-07T23:30:38.377Z,26.70
2019-04-07T23:33:04.234Z,28.77
2019-04-07T23:35:29.703Z,28.20
2019-04-07T23:37:55.349Z,31.48
2019-04-07T23:40:20.974Z,26.75
2019-04-07T23:42:46.721Z,28.12
2019-04-07T23:45:12.348Z,28.42
2019-04-07T23:47:38.650Z,30.12
2019-04-07T23:50:04.892Z,30.00
2019-04-07T23:52:31.222Z,28.02
2019-04-07T23:54:56.806Z,29.60
2019-04-07T23:57:22.334Z,29.35
2019-04-07T23:59:48.575Z,29.60
